Time;durP1;ratioP1;P1;durP2;ratioP2;P2;SDS_P1;SDS_P2;PMS_P1;PMS_P2;Temp;Humidity;BMP_temperature;BMP_pressure;BME280_temperature;BME280_humidity;BME280_pressure;Samples;Min_cycle;Max_cycle;Signal;HPM_P1;HPM_P2
2022/12/22 03:26:25;;;;;;;58.85;25.23;;;8.30;99.90;;;;;;4988463;28;20050;-87
2022/12/22 03:28:51;;;;;;;49.47;22.65;;;8.30;99.90;;;;;;4987763;28;20050;-87
2022/12/22 03:31:16;;;;;;;47.83;22.77;;;8.30;99.90;;;;;;4986113;28;20133;-87
2022/12/22 03:33:42;;;;;;;48.15;22.20;;;8.30;99.90;;;;;;5024097;28;20137;-87
2022/12/22 03:36:08;;;;;;;54.80;25.42;;;8.30;99.90;;;;;;5007270;28;20055;-87
2022/12/22 03:38:34;;;;;;;60.78;26.17;;;8.30;99.90;;;;;;5007631;28;20451;-87
2022/12/22 03:41:00;;;;;;;62.85;25.35;;;8.30;99.90;;;;;;5021380;28;20049;-86
2022/12/22 03:48:42;;;;;;;72.22;27.17;;;8.30;99.90;;;;;;4987617;28;20061;-86
2022/12/22 03:51:08;;;;;;;72.80;26.60;;;8.30;99.90;;;;;;4986723;28;20132;-86
2022/12/22 03:53:34;;;;;;;64.10;26.00;;;8.30;99.90;;;;;;4971300;28;20088;-87
2022/12/22 03:56:01;;;;;;;88.60;29.25;;;8.30;99.90;;;;;;4971731;28;20590;-86
2022/12/22 03:58:27;;;;;;;54.83;24.60;;;8.30;99.90;;;;;;5007637;28;20500;-86
2022/12/22 04:01:04;;;;;;;67.82;24.48;;;8.30;99.90;;;;;;5006500;28;20046;-86
2022/12/22 04:03:30;;;;;;;63.30;24.05;;;8.30;99.90;;;;;;5006455;28;20089;-86
2022/12/22 04:05:55;;;;;;;50.72;23.10;;;8.30;99.90;;;;;;4991070;28;20081;-86
2022/12/22 04:08:21;;;;;;;110.63;30.08;;;8.30;99.90;;;;;;5006482;28;20137;-86
2022/12/22 04:13:30;;;;;;;71.85;27.33;;;8.30;99.90;;;;;;5003980;28;20093;-86
2022/12/22 04:15:56;;;;;;;92.97;29.40;;;8.30;99.90;;;;;;4986714;28;20555;-87
2022/12/22 04:18:21;;;;;;;72.90;27.65;;;8.30;99.90;;;;;;5003500;28;20511;-85
2022/12/22 04:20:47;;;;;;;74.25;27.33;;;8.30;99.90;;;;;;5003912;28;20128;-86
2022/12/22 04:23:13;;;;;;;54.33;24.15;;;8.30;99.90;;;;;;4977074;28;20073;-86
2022/12/22 04:25:39;;;;;;;83.93;27.08;;;8.30;99.90;;;;;;5007349;28;20077;-86
2022/12/22 04:28:04;;;;;;;76.22;27.40;;;8.30;99.90;;;;;;5005181;28;20058;-87
2022/12/22 04:30:30;;;;;;;70.10;26.88;;;8.30;99.90;;;;;;5019323;28;20450;-86
2022/12/22 04:32:55;;;;;;;50.15;22.92;;;8.30;99.90;;;;;;4970849;28;20093;-86
2022/12/22 04:35:21;;;;;;;42.40;20.52;;;8.30;99.90;;;;;;4987128;28;20050;-87
2022/12/22 04:37:46;;;;;;;47.22;22.55;;;8.30;99.90;;;;;;4971334;28;20050;-86
2022/12/22 04:40:12;;;;;;;46.92;21.95;;;8.30;99.90;;;;;;5006804;28;20053;-86
2022/12/22 04:42:38;;;;;;;46.67;21.50;;;9.00;99.90;;;;;;5006188;28;20096;-86
2022/12/22 04:45:04;;;;;;;42.70;21.90;;;8.30;99.90;;;;;;5003822;28;20451;-86
2022/12/22 04:47:29;;;;;;;43.10;20.27;;;8.30;99.90;;;;;;4994947;28;20059;-87
2022/12/22 04:49:55;;;;;;;51.78;20.52;;;8.30;99.90;;;;;;5018715;28;20046;-86
2022/12/22 04:52:21;;;;;;;53.63;21.50;;;8.30;99.90;;;;;;4988141;28;20089;-86
2022/12/22 04:54:46;;;;;;;56.42;22.27;;;8.30;99.90;;;;;;4987082;28;20057;-87
2022/12/22 04:57:12;;;;;;;77.18;24.17;;;8.30;99.90;;;;;;4988113;28;20043;-87
2022/12/22 04:59:38;;;;;;;44.58;19.15;;;8.30;99.90;;;;;;4970138;28;20146;-87
2022/12/22 05:02:03;;;;;;;44.45;20.60;;;8.30;99.90;;;;;;4994449;28;20045;-87
2022/12/22 05:04:29;;;;;;;46.47;20.90;;;8.30;99.90;;;;;;4993766;28;20168;-87
2022/12/22 05:06:54;;;;;;;46.67;20.98;;;8.30;99.90;;;;;;4988869;28;20046;-86
2022/12/22 05:09:23;;;;;;;50.33;20.98;;;8.30;99.90;;;;;;4990407;28;20042;-87
2022/12/22 05:11:54;;;;;;;38.78;18.55;;;8.30;99.90;;;;;;4990118;28;20054;-87
2022/12/22 05:14:23;;;;;;;58.17;20.43;;;8.30;99.90;;;;;;5004236;28;20046;-87
2022/12/22 05:16:49;;;;;;;52.60;21.80;;;8.30;99.90;;;;;;5008687;28;20045;-86
2022/12/22 05:19:17;;;;;;;46.88;20.42;;;8.30;99.90;;;;;;5009477;28;20069;-87
2022/12/22 05:21:44;;;;;;;39.67;19.58;;;8.30;99.90;;;;;;5008120;28;20077;-87
2022/12/22 05:24:10;;;;;;;67.70;21.55;;;8.30;99.90;;;;;;5010306;28;20128;-87
2022/12/22 05:26:35;;;;;;;85.63;25.25;;;8.30;99.90;;;;;;4992924;28;20137;-87
2022/12/22 05:29:01;;;;;;;73.88;24.00;;;8.30;99.90;;;;;;5009995;28;20058;-87
2022/12/22 05:31:26;;;;;;;47.50;20.13;;;8.30;99.90;;;;;;5008005;28;20058;-87
2022/12/22 05:33:52;;;;;;;68.93;21.65;;;8.30;99.90;;;;;;4998134;28;20180;-87
2022/12/22 05:36:18;;;;;;;46.17;20.25;;;8.30;99.90;;;;;;4989748;28;20420;-86
2022/12/22 05:38:44;;;;;;;50.90;20.17;;;8.30;99.90;;;;;;4989414;28;20089;-86
2022/12/22 05:41:09;;;;;;;67.40;23.40;;;8.30;99.90;;;;;;4999171;28;20046;-86
2022/12/22 05:43:35;;;;;;;77.43;22.25;;;8.30;99.90;;;;;;4993342;28;20100;-87
2022/12/22 05:46:03;;;;;;;43.63;19.38;;;8.30;99.90;;;;;;5006226;28;20042;-86
2022/12/22 05:48:29;;;;;;;48.08;20.75;;;8.30;99.90;;;;;;4989539;28;20046;-87
2022/12/22 05:50:55;;;;;;;51.47;20.55;;;8.30;99.90;;;;;;4990802;28;20419;-87
2022/12/22 05:53:20;;;;;;;66.72;22.13;;;8.30;99.90;;;;;;5005653;28;20464;-86
2022/12/22 05:55:46;;;;;;;43.13;19.55;;;8.30;99.90;;;;;;5010509;28;20092;-87
2022/12/22 05:58:12;;;;;;;52.08;21.08;;;8.30;99.90;;;;;;5006959;28;20046;-86
2022/12/22 06:00:39;;;;;;;47.65;18.67;;;8.30;99.90;;;;;;5010402;28;20038;-86
2022/12/22 06:03:04;;;;;;;56.55;21.45;;;8.30;99.90;;;;;;5010292;28;20046;-86
2022/12/22 06:05:30;;;;;;;53.08;21.40;;;8.40;99.90;;;;;;5008184;28;20109;-86
2022/12/22 06:07:55;;;;;;;57.72;22.30;;;8.40;99.90;;;;;;4992769;28;20342;-86
2022/12/22 06:10:21;;;;;;;55.70;21.60;;;8.40;99.90;;;;;;5008774;28;20049;-86
2022/12/22 06:12:46;;;;;;;64.95;22.95;;;8.40;99.90;;;;;;4993261;28;20077;-86
2022/12/22 06:15:13;;;;;;;66.85;23.50;;;8.40;99.90;;;;;;4989038;28;20042;-87
2022/12/22 06:17:39;;;;;;;67.30;24.17;;;8.50;99.90;;;;;;5008133;28;20042;-87
2022/12/22 06:20:05;;;;;;;68.78;24.63;;;8.40;99.90;;;;;;5025085;28;20096;-85
2022/12/22 06:22:32;;;;;;;70.32;26.42;;;8.40;99.90;;;;;;5007203;28;20761;-86
2022/12/22 06:24:57;;;;;;;63.22;24.05;;;8.40;99.90;;;;;;5010361;28;20053;-87
2022/12/22 06:27:23;;;;;;;62.95;22.95;;;8.40;99.90;;;;;;5024739;28;20045;-87
2022/12/22 06:29:48;;;;;;;63.42;23.40;;;8.40;99.90;;;;;;5008313;28;20053;-85
2022/12/22 06:32:14;;;;;;;67.25;23.30;;;8.30;99.90;;;;;;4992965;28;20046;-88
2022/12/22 06:34:40;;;;;;;66.68;23.90;;;8.40;99.90;;;;;;5009594;28;20057;-88
2022/12/22 06:37:05;;;;;;;69.60;23.95;;;8.30;99.90;;;;;;5004076;28;20080;-88
2022/12/22 06:39:31;;;;;;;67.35;22.60;;;8.30;99.90;;;;;;5008591;28;20445;-87
2022/12/22 06:44:40;;;;;;;66.35;22.38;;;8.30;99.90;;;;;;5009932;28;20050;-87
2022/12/22 06:47:06;;;;;;;68.15;24.67;;;8.30;99.90;;;;;;5008581;28;20046;-86
2022/12/22 06:49:31;;;;;;;64.60;23.35;;;8.20;99.90;;;;;;5008526;28;20088;-87
2022/12/22 06:51:58;;;;;;;65.13;23.10;;;8.20;99.90;;;;;;5004327;28;20453;-88
2022/12/22 06:54:27;;;;;;;63.60;22.60;;;8.30;99.90;;;;;;4992234;28;20045;-91
2022/12/22 06:56:53;;;;;;;56.33;19.95;;;8.10;99.90;;;;;;5008101;28;20042;-87
2022/12/22 06:59:19;;;;;;;61.15;22.15;;;8.00;99.90;;;;;;5007988;28;20041;-89
2022/12/22 07:01:45;;;;;;;57.53;22.00;;;8.00;99.90;;;;;;4988341;28;20030;-91
2022/12/22 07:04:15;;;;;;;60.35;21.42;;;7.90;99.90;;;;;;4995759;28;20042;-88
2022/12/22 07:06:41;;;;;;;60.78;21.83;;;7.80;99.90;;;;;;4990020;28;20100;-88
2022/12/22 07:09:06;;;;;;;59.15;20.13;;;7.70;99.90;;;;;;5009430;28;20034;-90
2022/12/22 07:11:32;;;;;;;57.65;20.38;;;7.60;99.90;;;;;;4995464;28;20051;-91
2022/12/22 07:13:57;;;;;;;55.97;20.02;;;7.60;99.90;;;;;;5022135;28;20393;-91
2022/12/22 07:16:23;;;;;;;52.63;18.58;;;7.50;99.90;;;;;;5010423;28;20054;-90
2022/12/22 07:18:49;;;;;;;57.13;20.13;;;7.40;99.90;;;;;;4995398;28;20052;-90
2022/12/22 07:21:14;;;;;;;51.85;19.13;;;7.30;99.90;;;;;;5001043;28;20074;-91
2022/12/22 07:23:42;;;;;;;64.72;20.98;;;7.20;99.90;;;;;;4997087;28;20053;-90
2022/12/22 07:26:09;;;;;;;54.85;19.27;;;7.20;99.90;;;;;;4993583;28;20056;-89
2022/12/22 07:28:36;;;;;;;47.83;17.38;;;7.00;99.90;;;;;;4986631;28;20049;-89
2022/12/22 07:31:03;;;;;;;56.33;18.70;;;6.90;99.90;;;;;;4992839;28;20103;-88
2022/12/22 07:33:29;;;;;;;50.22;18.65;;;6.80;99.90;;;;;;5009689;28;20046;-91
2022/12/22 07:36:08;;;;;;;56.83;19.92;;;6.70;99.90;;;;;;5009176;28;20124;-89
2022/12/22 07:38:36;;;;;;;81.60;22.98;;;6.70;99.90;;;;;;5026712;28;20049;-89
2022/12/22 07:42:43;;;;;;;80.35;21.67;;;6.60;99.90;;;;;;5009111;28;20038;-86
2022/12/22 07:43:57;;;;;;;62.38;19.08;;;6.60;99.90;;;;;;4989466;28;20233;-87
2022/12/22 07:46:24;;;;;;;68.65;20.67;;;6.60;99.90;;;;;;4992766;28;20065;-88
2022/12/22 07:51:46;;;;;;;62.35;20.58;;;6.70;99.90;;;;;;5012556;28;20077;-93
2022/12/22 07:54:14;;;;;;;76.10;21.23;;;6.90;99.90;;;;;;5007848;28;20074;-88
2022/12/22 07:56:40;;;;;;;76.93;22.80;;;7.00;99.90;;;;;;4995358;28;20750;-89
2022/12/22 07:59:09;;;;;;;85.82;23.25;;;7.00;99.90;;;;;;5007079;28;20096;-88
2022/12/22 08:01:35;;;;;;;79.53;20.25;;;7.10;99.90;;;;;;4991182;28;20053;-89
2022/12/22 08:04:01;;;;;;;88.82;22.90;;;7.10;99.90;;;;;;4991682;28;20064;-90
2022/12/22 08:06:27;;;;;;;90.85;21.65;;;7.10;99.90;;;;;;4992104;28;20049;-88
2022/12/22 08:08:52;;;;;;;85.43;20.63;;;7.30;99.90;;;;;;5008446;28;20042;-89
2022/12/22 08:11:18;;;;;;;96.60;22.20;;;7.20;99.90;;;;;;5009431;28;20447;-90
2022/12/22 08:13:45;;;;;;;157.05;23.90;;;7.10;99.90;;;;;;5010593;28;20049;-91
2022/12/22 08:16:12;;;;;;;101.95;20.02;;;7.10;99.90;;;;;;5009288;28;20038;-86
2022/12/22 08:18:38;;;;;;;123.22;22.90;;;7.10;99.90;;;;;;4992559;28;20050;-86
2022/12/22 08:21:05;;;;;;;106.18;20.90;;;7.10;99.90;;;;;;4973469;28;20057;-88
2022/12/22 08:23:31;;;;;;;87.25;20.50;;;7.10;99.90;;;;;;4990083;28;20396;-91
2022/12/22 08:26:12;;;;;;;65.55;19.10;;;7.10;99.90;;;;;;4987652;28;20047;-89
2022/12/22 08:28:43;;;;;;;55.35;17.67;;;7.10;99.90;;;;;;4988837;28;20054;-89
2022/12/22 08:31:09;;;;;;;51.13;15.95;;;7.10;99.90;;;;;;4989381;28;20493;-89
2022/12/22 08:33:35;;;;;;;53.03;16.75;;;7.10;99.90;;;;;;5005969;28;20103;-88
2022/12/22 08:36:01;;;;;;;52.15;16.00;;;7.10;99.90;;;;;;5024332;28;20042;-87
2022/12/22 08:38:27;;;;;;;54.75;17.90;;;7.40;99.90;;;;;;4991908;28;20176;-89
2022/12/22 08:40:52;;;;;;;51.88;16.73;;;7.00;99.90;;;;;;4994633;28;20045;-88
2022/12/22 08:43:20;;;;;;;49.80;17.05;;;7.00;99.90;;;;;;4995555;28;20045;-88
2022/12/22 08:45:47;;;;;;;57.75;16.92;;;7.10;99.90;;;;;;4995432;28;20093;-88
2022/12/22 08:48:12;;;;;;;60.45;17.65;;;7.10;99.90;;;;;;4996446;28;20049;-90
2022/12/22 08:50:38;;;;;;;59.50;18.45;;;7.10;99.90;;;;;;4991797;28;20038;-89
2022/12/22 08:53:05;;;;;;;52.92;16.55;;;7.10;99.90;;;;;;4995791;28;20037;-88
2022/12/22 08:55:31;;;;;;;53.28;16.05;;;7.10;99.90;;;;;;4995962;28;20038;-87
2022/12/22 08:57:56;;;;;;;46.72;14.85;;;7.10;99.90;;;;;;5011559;28;20042;-89
2022/12/22 09:00:23;;;;;;;50.00;16.45;;;7.10;99.90;;;;;;4996613;28;20173;-89
2022/12/22 09:02:48;;;;;;;52.08;15.90;;;7.00;99.90;;;;;;4997103;28;20038;-91
2022/12/22 09:05:14;;;;;;;57.10;16.45;;;7.00;99.90;;;;;;4996266;28;20519;-89
2022/12/22 09:07:40;;;;;;;52.58;15.90;;;7.00;99.90;;;;;;4986248;28;20046;-89
2022/12/22 09:10:10;;;;;;;50.38;15.75;;;7.00;99.90;;;;;;4990431;28;20041;-89
2022/12/22 09:12:38;;;;;;;53.35;16.55;;;7.10;99.90;;;;;;5006611;28;20142;-90
2022/12/22 09:15:08;;;;;;;45.90;14.85;;;7.80;99.90;;;;;;4980721;28;20048;-90
2022/12/22 09:17:35;;;;;;;46.13;14.93;;;7.10;99.90;;;;;;4997241;28;20053;-89
2022/12/22 09:20:05;;;;;;;45.25;14.13;;;7.10;99.90;;;;;;5013509;28;20045;-90
2022/12/22 09:22:31;;;;;;;48.13;13.40;;;7.10;99.90;;;;;;5011214;28;20123;-86
2022/12/22 09:24:57;;;;;;;48.05;13.23;;;7.10;99.90;;;;;;5012694;28;20049;-90
2022/12/22 09:27:23;;;;;;;57.20;14.73;;;7.10;99.90;;;;;;4991474;28;20042;-88
2022/12/22 09:29:48;;;;;;;61.45;15.00;;;7.10;99.90;;;;;;4980335;28;20050;-88
2022/12/22 09:32:14;;;;;;;56.92;15.57;;;7.10;99.90;;;;;;5008226;28;20566;-88
2022/12/22 09:34:40;;;;;;;64.28;14.82;;;7.10;99.90;;;;;;5007469;28;20108;-87
2022/12/22 09:37:06;;;;;;;66.63;14.75;;;7.10;99.90;;;;;;5005777;28;20108;-88
2022/12/22 09:39:32;;;;;;;71.47;15.30;;;7.10;99.90;;;;;;5010087;28;20451;-86
2022/12/22 09:41:59;;;;;;;62.08;12.40;;;7.10;99.90;;;;;;5009331;28;20079;-88
2022/12/22 09:44:38;;;;;;;74.90;14.85;;;7.80;99.90;;;;;;4992426;28;20508;-88
2022/12/22 09:47:25;;;;;;;72.32;13.70;;;7.10;99.90;;;;;;5010796;28;20041;-87
2022/12/22 09:49:51;;;;;;;53.80;12.05;;;7.10;99.90;;;;;;5009657;28;20054;-87
2022/12/22 09:52:33;;;;;;;36.97;11.18;;;7.00;99.90;;;;;;5008665;28;20073;-87
2022/12/22 09:55:14;;;;;;;52.22;12.50;;;7.00;99.90;;;;;;5028131;28;20053;-90
2022/12/22 09:57:43;;;;;;;35.35;10.43;;;7.00;99.90;;;;;;5009864;28;20046;-88
2022/12/22 10:00:14;;;;;;;28.20;10.75;;;6.90;99.90;;;;;;4995182;28;20057;-89
2022/12/22 10:02:55;;;;;;;33.25;10.80;;;6.90;99.90;;;;;;5009393;28;20048;-87
2022/12/22 10:05:31;;;;;;;28.65;10.25;;;6.90;99.90;;;;;;5008641;28;20117;-88
2022/12/22 10:08:01;;;;;;;33.28;10.82;;;6.90;99.90;;;;;;4990160;28;20050;-85
2022/12/22 10:10:29;;;;;;;33.25;11.32;;;6.90;99.90;;;;;;4992340;28;20070;-87
2022/12/22 10:12:58;;;;;;;34.25;11.82;;;6.90;99.90;;;;;;4996497;28;20050;-90
2022/12/22 10:15:24;;;;;;;31.75;10.82;;;7.20;99.90;;;;;;4992695;28;20046;-87
2022/12/22 10:18:07;;;;;;;33.72;12.15;;;7.00;99.90;;;;;;4990026;28;20054;-86
2022/12/22 10:20:33;;;;;;;;;;;7.10;99.90;;;;;;4989574;28;20043;-86
2022/12/22 10:23:11;;;;;;;37.25;11.45;;;7.00;99.90;;;;;;4989026;28;20326;-85
2022/12/22 10:25:40;;;;;;;28.50;11.40;;;7.10;99.90;;;;;;4990113;28;20078;-86
2022/12/22 10:28:16;;;;;;;29.77;10.75;;;7.00;99.90;;;;;;4996226;28;20054;-87
2022/12/22 10:30:42;;;;;;;30.50;10.88;;;6.50;99.90;;;;;;5005973;28;20508;-86
2022/12/22 10:33:17;;;;;;;26.17;9.75;;;7.00;99.90;;;;;;4988928;28;20049;-86
2022/12/22 10:35:51;;;;;;;27.48;10.57;;;7.00;99.90;;;;;;4988484;28;20562;-87
2022/12/22 10:38:19;;;;;;;23.92;10.00;;;7.10;99.90;;;;;;4989149;28;20460;-86
2022/12/22 10:40:47;;;;;;;25.27;8.98;;;7.10;99.90;;;;;;5005263;28;20528;-86
2022/12/22 10:43:39;;;;;;;22.42;8.88;;;7.00;99.90;;;;;;4974795;28;20516;-86
2022/12/22 10:46:05;;;;;;;22.10;9.00;;;7.10;99.90;;;;;;4988422;28;20039;-86
2022/12/22 10:48:36;;;;;;;24.25;9.93;;;7.00;99.90;;;;;;4988720;28;20054;-87
2022/12/22 10:51:06;;;;;;;19.90;9.52;;;7.10;99.90;;;;;;4998422;28;20628;-86
2022/12/22 10:53:52;;;;;;;27.00;9.45;;;7.10;99.90;;;;;;5007477;28;20050;-86
2022/12/22 10:56:26;;;;;;;23.77;9.20;;;7.10;99.90;;;;;;4991285;28;20045;-86
2022/12/22 10:59:10;;;;;;;22.58;8.85;;;7.10;99.90;;;;;;5007376;28;20534;-85
2022/12/22 11:01:36;;;;;;;21.85;9.00;;;7.20;99.90;;;;;;5008001;28;20508;-87
2022/12/22 11:04:20;;;;;;;22.05;9.00;;;7.20;99.90;;;;;;5007876;28;20038;-85
2022/12/22 11:06:47;;;;;;;23.48;9.00;;;7.20;99.90;;;;;;5005697;28;20038;-87
2022/12/22 11:09:13;;;;;;;23.27;9.23;;;7.30;99.90;;;;;;4985021;28;20106;-86
2022/12/22 11:12:34;;;;;;;25.58;9.18;;;7.40;99.90;;;;;;4973761;28;20099;-92
2022/12/22 11:15:08;;;;;;;20.75;8.95;;;7.40;99.90;;;;;;4991960;28;20471;-86
2022/12/22 11:17:54;;;;;;;20.08;8.63;;;7.40;99.90;;;;;;4973302;28;20490;-86
2022/12/22 11:20:35;;;;;;;17.00;9.10;;;7.50;99.90;;;;;;4997437;28;20051;-87
2022/12/22 11:23:17;;;;;;;20.63;9.43;;;7.50;99.90;;;;;;5007304;28;20092;-86
2022/12/22 11:26:16;;;;;;;19.92;8.90;;;7.50;99.90;;;;;;5005476;28;20156;-86
2022/12/22 11:28:48;;;;;;;19.75;8.70;;;7.70;99.90;;;;;;4989897;28;20052;-86
2022/12/22 11:31:29;;;;;;;15.75;8.40;;;7.80;99.90;;;;;;5001301;28;20057;-85
2022/12/22 11:33:55;;;;;;;18.97;7.83;;;7.70;99.90;;;;;;5024293;28;20050;-84
2022/12/22 11:36:43;;;;;;;17.92;8.82;;;7.50;99.90;;;;;;5007375;28;20054;-87
2022/12/22 11:39:14;;;;;;;18.95;8.85;;;7.70;99.90;;;;;;4992074;28;20066;-86
2022/12/22 11:42:00;;;;;;;14.23;8.03;;;7.60;99.90;;;;;;5007592;28;20578;-87
2022/12/22 11:44:34;;;;;;;18.73;9.40;;;7.80;99.90;;;;;;5025067;28;20037;-86
2022/12/22 11:47:21;;;;;;;14.25;8.13;;;7.90;99.90;;;;;;5007326;28;20044;-87
2022/12/22 11:50:13;;;;;;;16.48;8.32;;;8.00;99.90;;;;;;5005716;28;20515;-86
2022/12/22 11:52:51;;;;;;;15.48;8.85;;;8.10;99.90;;;;;;4999768;28;20043;-89
2022/12/22 11:55:41;;;;;;;14.63;7.78;;;8.30;99.90;;;;;;4989216;28;20053;-88
2022/12/22 11:58:20;;;;;;;18.35;8.02;;;7.90;99.90;;;;;;4988744;28;20046;-86
2022/12/22 12:01:05;;;;;;;16.65;8.45;;;7.80;99.90;;;;;;4988452;28;20046;-87
2022/12/22 12:03:49;;;;;;;13.43;6.30;;;7.90;99.90;;;;;;4980382;28;20100;-88
2022/12/22 12:07:01;;;;;;;9.85;6.80;;;7.90;99.90;;;;;;5000692;28;20499;-86
2022/12/22 12:09:32;;;;;;;16.10;7.07;;;7.90;99.90;;;;;;4988843;28;20112;-86
2022/12/22 12:12:10;;;;;;;12.70;6.90;;;7.90;99.90;;;;;;4997037;28;20546;-85
2022/12/22 12:15:06;;;;;;;12.93;7.22;;;7.90;99.90;;;;;;4988519;28;20043;-85
2022/12/22 12:17:59;;;;;;;15.27;7.38;;;8.00;99.90;;;;;;4979964;28;20057;-85
2022/12/22 12:20:43;;;;;;;13.43;6.68;;;8.00;99.90;;;;;;5010691;28;20054;-85
2022/12/22 12:23:38;;;;;;;14.50;7.63;;;8.10;99.90;;;;;;5010677;28;20054;-85
2022/12/22 12:26:31;;;;;;;13.68;6.10;;;8.20;99.90;;;;;;4994367;28;20058;-86
2022/12/22 12:29:05;;;;;;;15.07;6.85;;;8.20;99.90;;;;;;5009724;28;20524;-84
2022/12/22 12:31:40;;;;;;;10.52;6.43;;;8.30;99.90;;;;;;5008908;28;20092;-84
2022/12/22 12:34:11;;;;;;;14.00;7.38;;;8.30;99.90;;;;;;5009691;28;20084;-86
2022/12/22 12:37:01;;;;;;;11.65;7.13;;;8.10;99.90;;;;;;5008192;28;20141;-88
2022/12/22 12:39:45;;;;;;;15.30;6.70;;;8.50;99.90;;;;;;5010062;28;20092;-87
2022/12/22 12:42:38;;;;;;;12.65;6.30;;;8.50;99.90;;;;;;5008988;28;20052;-87
2022/12/22 12:45:34;;;;;;;14.70;6.78;;;8.50;99.90;;;;;;4994532;28;20124;-87
2022/12/22 12:48:18;;;;;;;17.33;7.20;;;8.60;99.90;;;;;;4989719;28;20104;-85
2022/12/22 12:50:44;;;;;;;15.88;6.72;;;8.40;99.90;;;;;;5009062;28;20495;-86
2022/12/22 12:53:10;;;;;;;15.35;6.43;;;8.40;99.90;;;;;;5003663;28;20045;-86
2022/12/22 12:55:54;;;;;;;21.80;7.75;;;8.70;99.90;;;;;;4993137;28;20037;-87
2022/12/22 12:58:37;;;;;;;14.90;6.90;;;8.80;99.90;;;;;;5009166;28;20092;-86
2022/12/22 13:01:14;;;;;;;16.90;6.60;;;8.80;99.90;;;;;;5009617;28;20606;-90
2022/12/22 13:03:44;;;;;;;16.17;7.25;;;8.90;99.90;;;;;;4993097;28;20069;-86
2022/12/22 13:06:32;;;;;;;14.80;6.88;;;9.00;99.90;;;;;;5009356;28;20042;-85
2022/12/22 13:09:01;;;;;;;12.98;6.90;;;9.00;99.90;;;;;;4992207;28;20041;-84
2022/12/22 13:11:39;;;;;;;16.33;7.75;;;9.10;99.90;;;;;;4989682;28;20054;-86
2022/12/22 13:14:08;;;;;;;11.65;6.28;;;9.10;99.90;;;;;;4974467;28;20049;-85
2022/12/22 13:16:36;;;;;;;13.27;6.95;;;9.70;99.90;;;;;;4991940;28;20128;-88
2022/12/22 13:19:10;;;;;;;14.77;6.82;;;9.10;99.90;;;;;;5009501;28;20046;-85
2022/12/22 13:21:43;;;;;;;19.55;6.93;;;9.10;99.90;;;;;;4994341;28;20057;-87
2022/12/22 13:24:25;;;;;;;15.48;6.80;;;9.00;99.90;;;;;;5008727;28;20046;-87
2022/12/22 13:26:53;;;;;;;13.65;6.80;;;9.10;99.90;;;;;;5006669;28;20157;-87
2022/12/22 13:29:27;;;;;;;11.60;6.07;;;8.90;99.90;;;;;;4988515;28;20096;-86
2022/12/22 13:32:01;;;;;;;13.80;6.10;;;8.90;99.90;;;;;;5019143;28;20077;-86
2022/12/22 13:34:26;;;;;;;13.30;5.75;;;8.60;99.90;;;;;;4991981;28;20121;-86
2022/12/22 13:36:54;;;;;;;15.45;6.40;;;10.10;99.90;;;;;;5006083;28;20133;-89
2022/12/22 13:39:20;;;;;;;12.50;6.50;;;8.70;99.90;;;;;;5007608;28;20042;-87
2022/12/22 13:41:49;;;;;;;13.32;6.03;;;8.10;99.90;;;;;;5009744;28;20097;-88
2022/12/22 13:44:18;;;;;;;12.30;5.22;;;8.80;99.90;;;;;;4993604;28;20165;-87
2022/12/22 13:46:45;;;;;;;9.98;5.30;;;8.80;99.90;;;;;;5009384;28;20053;-86
2022/12/22 13:49:17;;;;;;;11.68;5.90;;;9.40;99.90;;;;;;4966065;28;20052;-87
2022/12/22 13:51:45;;;;;;;12.13;5.43;;;9.10;99.90;;;;;;4996711;28;20704;-86
2022/12/22 13:54:12;;;;;;;14.32;5.65;;;9.10;99.90;;;;;;5013486;28;20034;-86
2022/12/22 13:56:48;;;;;;;11.13;6.72;;;8.80;99.90;;;;;;5021775;28;20053;-86
2022/12/22 13:59:53;;;;;;;11.38;5.72;;;9.00;99.90;;;;;;4993466;28;20108;-84
2022/12/22 14:02:20;;;;;;;13.27;6.63;;;9.10;99.90;;;;;;5009107;28;20057;-85
2022/12/22 14:05:09;;;;;;;9.05;5.88;;;8.70;99.90;;;;;;5010761;28;20081;-86
2022/12/22 14:07:38;;;;;;;8.18;5.93;;;8.90;99.90;;;;;;5016737;28;20119;-87
2022/12/22 14:10:06;;;;;;;14.18;6.30;;;8.90;99.90;;;;;;5011324;28;20856;-87
2022/12/22 14:12:40;;;;;;;19.02;6.45;;;8.70;99.90;;;;;;5022852;28;20508;-86
2022/12/22 14:15:15;;;;;;;10.25;5.97;;;8.70;99.90;;;;;;5024922;28;20053;-88
2022/12/22 14:18:01;;;;;;;12.65;6.07;;;8.70;99.90;;;;;;5023947;28;20064;-86
2022/12/22 14:20:36;;;;;;;15.48;5.90;;;8.70;99.90;;;;;;5010006;28;20050;-87
2022/12/22 14:23:02;;;;;;;14.73;6.50;;;8.60;99.90;;;;;;5025778;28;20045;-87
2022/12/22 14:25:34;;;;;;;16.70;6.18;;;8.50;99.90;;;;;;5009329;28;20107;-88
2022/12/22 14:28:01;;;;;;;;;;;8.50;99.90;;;;;;5024872;28;20057;-86
2022/12/22 14:30:35;;;;;;;13.32;5.72;;;8.50;99.90;;;;;;5016791;28;19988;-87
2022/12/22 14:33:31;;;;;;;8.50;5.57;;;8.50;99.90;;;;;;5013714;28;20112;-86
2022/12/22 14:36:14;;;;;;;11.77;5.90;;;8.70;99.90;;;;;;5013439;28;20053;-86
2022/12/22 14:38:51;;;;;;;12.98;5.60;;;8.60;99.90;;;;;;5009516;28;20049;-87
2022/12/22 14:41:45;;;;;;;10.88;5.80;;;8.50;99.90;;;;;;5026961;28;20041;-87
2022/12/22 14:44:41;;;;;;;10.82;5.90;;;8.50;99.90;;;;;;5027409;28;20053;-87
2022/12/22 14:47:18;;;;;;;16.65;5.88;;;8.50;99.90;;;;;;5027026;28;20049;-86
2022/12/22 14:50:12;;;;;;;14.57;5.32;;;8.40;99.90;;;;;;5028192;28;20124;-88
2022/12/22 14:52:50;;;;;;;9.40;5.20;;;8.40;99.90;;;;;;5027535;28;20076;-87
2022/12/22 14:55:22;;;;;;;10.65;4.85;;;8.40;99.90;;;;;;5027504;28;20050;-87
2022/12/22 14:57:53;;;;;;;14.55;5.65;;;7.90;99.90;;;;;;5028618;28;20077;-89
2022/12/22 15:00:21;;;;;;;14.02;5.45;;;8.40;99.90;;;;;;5011638;28;20495;-86
2022/12/22 15:02:53;;;;;;;11.13;5.28;;;8.40;99.90;;;;;;5011532;28;20132;-86
2022/12/22 15:05:33;;;;;;;9.10;5.00;;;8.90;99.90;;;;;;5027719;28;20042;-88
2022/12/22 15:08:00;;;;;;;9.10;4.75;;;8.30;99.90;;;;;;5027424;28;20050;-86
2022/12/22 15:10:32;;;;;;;10.35;4.20;;;8.30;99.90;;;;;;5010900;28;20507;-86
2022/12/22 15:13:03;;;;;;;10.57;4.93;;;8.20;99.90;;;;;;5017228;28;20061;-86
2022/12/22 15:15:30;;;;;;;11.38;4.90;;;8.10;99.90;;;;;;5012622;28;20127;-85
2022/12/22 15:17:56;;;;;;;8.70;4.43;;;8.10;99.90;;;;;;5017448;28;20064;-86
2022/12/22 15:20:26;;;;;;;11.75;5.60;;;8.10;99.90;;;;;;5025618;28;20060;-86
2022/12/22 15:22:52;;;;;;;10.43;4.85;;;8.30;99.90;;;;;;5026239;28;20541;-85
2022/12/22 15:25:23;;;;;;;14.32;5.55;;;8.00;99.90;;;;;;5026789;28;20072;-85
2022/12/22 15:27:49;;;;;;;12.70;5.70;;;8.00;99.90;;;;;;4999266;28;20084;-85
2022/12/22 15:30:20;;;;;;;11.10;4.65;;;8.00;99.90;;;;;;5025750;28;20059;-86
2022/12/22 15:32:46;;;;;;;9.85;5.20;;;8.00;99.90;;;;;;5010882;28;20088;-87
2022/12/22 15:35:33;;;;;;;12.23;5.35;;;8.00;99.90;;;;;;5006712;28;20472;-86
2022/12/22 15:38:00;;;;;;;10.02;5.25;;;8.00;99.90;;;;;;5012357;28;20534;-86
2022/12/22 15:40:26;;;;;;;9.43;6.05;;;7.90;99.90;;;;;;5026638;28;20049;-85
2022/12/22 15:42:52;;;;;;;13.05;7.50;;;7.90;99.90;;;;;;5009648;28;20085;-84
2022/12/22 15:45:20;;;;;;;23.80;12.90;;;7.90;99.90;;;;;;5025676;28;20080;-86
2022/12/22 15:47:50;;;;;;;17.13;8.05;;;7.90;99.90;;;;;;5026591;28;20045;-87
2022/12/22 15:50:26;;;;;;;16.17;8.65;;;7.90;99.90;;;;;;5021774;28;20056;-85
2022/12/22 15:52:54;;;;;;;14.68;9.05;;;7.90;99.90;;;;;;5027077;28;20110;-86
2022/12/22 15:55:20;;;;;;;13.80;8.80;;;7.90;99.90;;;;;;5016364;28;20045;-87
2022/12/22 15:57:50;;;;;;;19.23;11.63;;;7.90;99.90;;;;;;5006651;28;20049;-85
2022/12/22 16:00:16;;;;;;;14.10;8.07;;;7.90;99.90;;;;;;5021304;28;20045;-85
2022/12/22 16:02:46;;;;;;;13.50;8.45;;;7.90;99.90;;;;;;5027825;28;20572;-85
2022/12/22 16:05:12;;;;;;;15.07;9.32;;;8.00;99.90;;;;;;5026001;28;20557;-87
2022/12/22 16:07:39;;;;;;;14.23;9.80;;;8.00;99.90;;;;;;5014184;28;20049;-86
2022/12/22 16:10:09;;;;;;;16.73;10.02;;;8.00;99.90;;;;;;5017746;28;20684;-86
2022/12/22 16:12:48;;;;;;;17.35;10.85;;;8.00;99.90;;;;;;5007864;28;20931;-85
2022/12/22 16:15:15;;;;;;;16.77;11.52;;;8.00;99.90;;;;;;5006587;28;20519;-85
2022/12/22 16:17:40;;;;;;;16.50;12.27;;;8.00;99.90;;;;;;5021135;28;20099;-84
2022/12/22 16:20:07;;;;;;;18.67;12.23;;;8.00;99.90;;;;;;5025217;28;20037;-85
2022/12/22 16:22:35;;;;;;;33.97;20.42;;;8.00;99.90;;;;;;5026502;28;20135;-88
2022/12/22 16:25:04;;;;;;;20.52;13.38;;;8.00;99.90;;;;;;5025992;28;20049;-85
2022/12/22 16:27:30;;;;;;;21.00;14.90;;;8.20;99.90;;;;;;5025705;28;20056;-85
2022/12/22 16:29:56;;;;;;;25.83;16.80;;;8.00;99.90;;;;;;5016840;28;20069;-85
2022/12/22 16:32:30;;;;;;;20.40;14.23;;;8.00;99.90;;;;;;5014884;28;20056;-86
2022/12/22 16:35:08;;;;;;;19.70;13.75;;;8.00;99.90;;;;;;5022784;28;20065;-86
2022/12/22 16:37:34;;;;;;;20.52;12.77;;;8.70;99.90;;;;;;5006556;28;20042;-86
2022/12/22 16:40:00;;;;;;;17.60;12.57;;;7.90;99.90;;;;;;5006324;28;20046;-85